Time;durP1;ratioP1;P1;durP2;ratioP2;P2;SDS_P1;SDS_P2;PMS_P1;PMS_P2;Temp;Humidity;BMP_temperature;BMP_pressure;BME280_temperature;BME280_humidity;BME280_pressure;Samples;Min_cycle;Max_cycle;Signal;HPM_P1;HPM_P2
2022/01/24 00:00:53;;;;;;;356.98;145.82;;;-4.30;99.90;;;;;;5055146;28;20099;-54
2022/01/24 00:03:19;;;;;;;362.58;143.85;;;-4.30;99.90;;;;;;5055728;28;20032;-54
2022/01/24 00:05:45;;;;;;;301.73;122.50;;;-4.20;99.90;;;;;;5055652;28;20118;-54
2022/01/24 00:08:11;;;;;;;224.95;96.05;;;-4.20;99.90;;;;;;5055704;28;20060;-54
2022/01/24 00:10:39;;;;;;;257.33;107.07;;;-4.10;99.90;;;;;;5055572;28;20516;-54
2022/01/24 00:15:53;;;;;;;241.52;99.38;;;-4.00;99.90;;;;;;5055448;28;20025;-54
2022/01/24 00:29:10;;;;;;;754.08;256.30;;;-4.50;99.90;;;;;;5075273;28;20099;-54
2022/01/24 00:31:36;;;;;;;526.30;193.55;;;-4.50;99.90;;;;;;5072485;28;20048;-54
2022/01/24 00:34:02;;;;;;;539.42;190.65;;;-4.50;99.90;;;;;;5055266;28;20033;-54
2022/01/24 00:36:28;;;;;;;726.47;265.80;;;-4.60;99.90;;;;;;5055128;28;20044;-54
2022/01/24 00:38:54;;;;;;;754.90;276.63;;;-4.60;99.90;;;;;;5055083;28;20044;-54
2022/01/24 00:41:22;;;;;;;865.47;313.75;;;-4.60;99.90;;;;;;5055053;28;20033;-54
2022/01/24 00:46:41;;;;;;;826.08;301.85;;;-4.70;99.90;;;;;;5054830;28;20076;-54
2022/01/24 00:57:03;;;;;;;344.40;129.57;;;-4.40;99.90;;;;;;5054991;28;20078;-54
2022/01/24 00:59:30;;;;;;;290.25;115.05;;;-4.50;99.90;;;;;;5054778;28;20494;-54
2022/01/24 01:01:56;;;;;;;283.05;113.15;;;-4.60;99.90;;;;;;5054606;28;20036;-54
2022/01/24 01:04:28;;;;;;;286.52;113.38;;;-4.60;99.90;;;;;;5054744;28;20037;-54
2022/01/24 01:06:55;;;;;;;272.52;108.80;;;-4.60;99.90;;;;;;5054511;28;20478;-54
2022/01/24 01:20:25;;;;;;;251.05;98.93;;;-4.50;99.90;;;;;;5034484;28;20041;-54
2022/01/24 01:22:51;;;;;;;295.90;113.28;;;-4.50;99.90;;;;;;5034596;28;20120;-54
2022/01/24 01:25:17;;;;;;;273.98;109.38;;;-4.50;99.90;;;;;;5034514;28;20064;-54
2022/01/24 01:27:46;;;;;;;278.85;110.82;;;-4.60;99.90;;;;;;5034479;28;20025;-54
2022/01/24 01:30:19;;;;;;;284.83;109.75;;;-4.70;99.90;;;;;;5034237;28;20041;-54
2022/01/24 01:38:21;;;;;;;297.13;111.45;;;-4.80;99.90;;;;;;5054763;28;20080;-54
2022/01/24 01:52:19;;;;;;;309.52;120.28;;;-4.70;99.90;;;;;;5054111;28;20051;-54
2022/01/24 01:54:52;;;;;;;205.95;85.32;;;-4.30;99.90;;;;;;5054214;28;20032;-54
2022/01/24 01:57:20;;;;;;;207.13;86.13;;;-4.30;99.90;;;;;;5054038;28;20029;-54
2022/01/24 01:59:47;;;;;;;221.98;88.45;;;-4.30;99.90;;;;;;5054219;28;20029;-54
2022/01/24 02:02:13;;;;;;;272.17;109.43;;;-4.30;99.90;;;;;;5054070;28;20048;-54
2022/01/24 02:04:41;;;;;;;230.85;96.22;;;-4.30;99.90;;;;;;5053968;28;20028;-54
2022/01/24 02:07:12;;;;;;;209.25;87.93;;;-4.20;99.90;;;;;;5053958;28;20036;-54
2022/01/24 02:09:41;;;;;;;218.13;88.78;;;-4.30;99.90;;;;;;5054066;28;20036;-54
2022/01/24 02:12:08;;;;;;;252.18;101.90;;;-4.20;99.90;;;;;;5053927;28;20467;-54
2022/01/24 02:14:38;;;;;;;244.73;104.25;;;-4.20;99.90;;;;;;5053991;28;20025;-54
2022/01/24 02:17:09;;;;;;;236.63;93.43;;;-4.20;99.90;;;;;;5053809;28;20036;-54
2022/01/24 02:24:43;;;;;;;670.70;238.48;;;-4.10;99.90;;;;;;5074759;28;20477;-54
2022/01/24 02:27:10;;;;;;;557.67;195.85;;;-4.00;99.90;;;;;;5077700;28;20060;-55
2022/01/24 02:32:15;;;;;;;632.30;221.23;;;-4.00;99.90;;;;;;5049530;28;20040;-54
2022/01/24 02:34:45;;;;;;;590.85;193.10;;;-4.10;99.90;;;;;;5037546;28;20040;-54
2022/01/24 02:37:15;;;;;;;523.00;173.93;;;-4.00;99.90;;;;;;5037363;28;20399;-54
2022/01/24 02:39:47;;;;;;;457.95;154.02;;;-4.10;99.90;;;;;;5037532;28;20490;-54
2022/01/24 02:51:00;;;;;;;418.23;145.02;;;-3.90;99.90;;;;;;5037389;28;20025;-54
2022/01/24 02:53:27;;;;;;;429.88;149.55;;;-3.80;99.90;;;;;;5037178;28;20026;-54
2022/01/24 02:55:53;;;;;;;470.42;148.05;;;-3.90;99.90;;;;;;5036962;28;20021;-54
2022/01/24 02:58:20;;;;;;;403.13;144.80;;;-3.80;99.90;;;;;;5036977;28;20375;-54
2022/01/24 03:00:48;;;;;;;652.25;235.55;;;-3.80;99.90;;;;;;5036954;28;20089;-54
2022/01/24 03:03:16;;;;;;;943.78;345.13;;;-3.70;99.90;;;;;;5037116;28;20038;-54
2022/01/24 03:05:42;;;;;;;854.03;313.00;;;-3.70;99.90;;;;;;5037095;28;20112;-54
2022/01/24 03:08:09;;;;;;;619.20;226.65;;;-3.70;99.90;;;;;;5036843;28;20085;-54
2022/01/24 03:10:42;;;;;;;559.35;217.85;;;-3.70;99.90;;;;;;5036777;28;20025;-54
2022/01/24 03:13:21;;;;;;;567.80;223.77;;;-3.70;99.90;;;;;;5018814;28;20029;-54
2022/01/24 03:15:54;;;;;;;591.47;246.13;;;-3.60;99.90;;;;;;5036808;28;20387;-54
2022/01/24 03:18:20;;;;;;;672.45;268.50;;;-3.60;99.90;;;;;;5041703;28;20029;-54
2022/01/24 03:20:47;;;;;;;661.40;272.63;;;-3.60;99.90;;;;;;5056530;28;20108;-54
2022/01/24 03:23:15;;;;;;;619.75;255.32;;;-3.50;99.90;;;;;;5056588;28;20114;-54
2022/01/24 03:25:42;;;;;;;565.10;235.00;;;-3.50;99.90;;;;;;5056460;28;20017;-54
2022/01/24 03:28:08;;;;;;;596.38;242.00;;;-3.50;99.90;;;;;;5056232;28;20406;-54
2022/01/24 03:30:35;;;;;;;488.35;196.02;;;-3.40;99.90;;;;;;5062673;28;20044;-54
2022/01/24 03:33:02;;;;;;;449.60;185.05;;;-3.30;99.90;;;;;;5062082;28;20033;-54
2022/01/24 03:35:28;;;;;;;465.73;183.88;;;-3.30;99.90;;;;;;5055711;28;20058;-55
2022/01/24 03:37:54;;;;;;;462.55;181.65;;;-3.30;99.90;;;;;;5055650;28;20029;-54
2022/01/24 03:40:20;;;;;;;359.90;147.05;;;-3.30;99.90;;;;;;5056012;28;20035;-54
2022/01/24 03:42:46;;;;;;;492.98;202.43;;;-3.20;99.90;;;;;;5056325;28;20041;-54
2022/01/24 03:45:14;;;;;;;458.63;182.18;;;-3.30;99.90;;;;;;5056039;28;20379;-54
2022/01/24 03:47:58;;;;;;;466.30;187.65;;;-3.40;99.90;;;;;;5055879;28;20025;-54
2022/01/24 03:50:24;;;;;;;453.63;175.60;;;-3.40;99.90;;;;;;5055792;28;20430;-54
2022/01/24 03:52:51;;;;;;;476.63;187.85;;;-3.40;99.90;;;;;;5055980;28;20075;-54
2022/01/24 03:55:16;;;;;;;445.65;172.98;;;-3.40;99.90;;;;;;5056071;28;20025;-54
2022/01/24 03:57:43;;;;;;;410.27;160.40;;;-3.30;99.90;;;;;;5055779;28;20036;-54
2022/01/24 04:00:09;;;;;;;429.95;170.57;;;-3.30;99.90;;;;;;5055742;28;20040;-54
2022/01/24 04:02:39;;;;;;;424.25;166.25;;;-3.30;99.90;;;;;;5055928;28;20029;-54
2022/01/24 04:05:05;;;;;;;397.80;155.93;;;-3.30;99.90;;;;;;5055655;28;20540;-54
2022/01/24 04:07:32;;;;;;;412.70;166.15;;;-3.30;99.90;;;;;;5055592;28;20020;-54
2022/01/24 04:10:04;;;;;;;395.00;159.07;;;-3.40;99.90;;;;;;5055605;28;20535;-54
2022/01/24 04:12:31;;;;;;;410.42;156.82;;;-3.40;99.90;;;;;;5055285;28;20025;-54
2022/01/24 04:15:10;;;;;;;498.55;196.52;;;-3.50;99.90;;;;;;5055610;28;20033;-54
2022/01/24 04:17:46;;;;;;;522.45;205.73;;;-3.50;99.90;;;;;;5055396;28;20040;-54
2022/01/24 04:23:00;;;;;;;521.58;206.50;;;-3.60;99.90;;;;;;5035424;28;20304;-54
2022/01/24 04:25:26;;;;;;;487.65;189.98;;;-3.70;99.90;;;;;;5035461;28;20080;-54
2022/01/24 04:27:54;;;;;;;474.65;182.27;;;-3.60;99.90;;;;;;5035300;28;20120;-54
2022/01/24 04:30:22;;;;;;;441.08;168.25;;;-3.40;99.90;;;;;;5035046;28;20502;-54
2022/01/24 04:32:48;;;;;;;408.58;158.65;;;-3.40;99.90;;;;;;5047811;28;20522;-54
2022/01/24 04:35:14;;;;;;;403.02;156.68;;;-3.40;99.90;;;;;;5055131;28;20021;-54
2022/01/24 04:37:40;;;;;;;407.85;159.73;;;-3.40;99.90;;;;;;5055156;28;20479;-54
2022/01/24 04:40:07;;;;;;;409.08;163.32;;;-3.40;99.90;;;;;;5054864;28;20040;-54
2022/01/24 04:42:47;;;;;;;375.25;149.20;;;-3.40;99.90;;;;;;5054852;28;20025;-54
2022/01/24 04:45:33;;;;;;;375.33;150.32;;;-3.30;99.90;;;;;;5055014;28;20037;-54
2022/01/24 04:50:59;;;;;;;283.67;120.03;;;-3.20;99.90;;;;;;5054595;28;20179;-54
2022/01/24 04:55:54;;;;;;;215.63;91.00;;;-3.30;99.90;;;;;;5054555;28;20033;-54
2022/01/24 04:58:20;;;;;;;236.30;99.43;;;-3.30;99.90;;;;;;5054719;28;20454;-54
2022/01/24 05:00:46;;;;;;;216.30;91.95;;;-3.30;99.90;;;;;;5054634;28;20074;-54
2022/01/24 05:03:12;;;;;;;177.77;76.95;;;-3.30;99.90;;;;;;5054706;28;20029;-54
2022/01/24 05:05:38;;;;;;;177.40;76.70;;;-3.20;99.90;;;;;;5054633;28;20032;-54
2022/01/24 05:08:06;;;;;;;164.13;68.80;;;-3.20;99.90;;;;;;5054283;28;20093;-54
2022/01/24 05:10:41;;;;;;;165.02;66.15;;;-3.20;99.90;;;;;;5054628;28;20028;-54
2022/01/24 05:21:52;;;;;;;113.13;48.63;;;-3.00;99.90;;;;;;5043806;28;20417;-54
2022/01/24 05:24:17;;;;;;;135.98;57.00;;;-3.00;99.90;;;;;;5034520;28;20499;-54
2022/01/24 05:26:43;;;;;;;99.13;44.95;;;-3.00;99.90;;;;;;5034314;28;20057;-54
2022/01/24 05:29:09;;;;;;;107.72;48.45;;;-2.90;99.90;;;;;;5034295;28;20459;-54
2022/01/24 05:31:35;;;;;;;118.25;50.38;;;-2.80;99.90;;;;;;5036360;28;20050;-54
2022/01/24 05:34:00;;;;;;;104.75;45.85;;;-2.80;99.90;;;;;;5054227;28;20078;-54
2022/01/24 05:36:27;;;;;;;72.05;33.38;;;-2.90;99.90;;;;;;5054213;28;20068;-54
2022/01/24 05:38:53;;;;;;;64.65;30.20;;;-2.80;99.90;;;;;;5054215;28;20025;-54
2022/01/24 05:41:19;;;;;;;87.43;41.70;;;-2.90;99.90;;;;;;5054620;28;20059;-54
2022/01/24 05:43:45;;;;;;;96.88;44.45;;;-2.90;99.90;;;;;;5053974;28;20116;-54
2022/01/24 05:46:11;;;;;;;87.78;42.97;;;-2.80;99.90;;;;;;5054002;28;20029;-54
2022/01/24 05:48:37;;;;;;;84.65;41.53;;;-2.90;99.90;;;;;;5054066;28;20148;-54
2022/01/24 05:51:03;;;;;;;87.13;42.42;;;-2.90;99.90;;;;;;5053974;28;20036;-55
2022/01/24 05:53:29;;;;;;;60.17;31.50;;;-2.70;99.90;;;;;;5054207;28;20379;-54
2022/01/24 05:55:55;;;;;;;58.78;28.92;;;-2.70;99.90;;;;;;5053865;28;20028;-54
2022/01/24 05:58:21;;;;;;;47.45;25.13;;;-2.80;99.90;;;;;;5053873;28;20459;-54
2022/01/24 06:00:47;;;;;;;55.88;26.55;;;-2.80;99.90;;;;;;5057036;28;20096;-54
2022/01/24 06:03:13;;;;;;;71.70;33.28;;;-2.80;99.90;;;;;;5058069;28;20434;-54
2022/01/24 06:05:39;;;;;;;78.25;33.17;;;-2.80;99.90;;;;;;5057724;28;20029;-54
2022/01/24 06:08:05;;;;;;;69.15;32.00;;;-2.80;99.90;;;;;;5057748;28;20032;-54
2022/01/24 06:10:31;;;;;;;71.97;32.50;;;-2.80;99.90;;;;;;5057624;28;20462;-54
2022/01/24 06:12:57;;;;;;;67.03;28.80;;;-2.80;99.90;;;;;;5054831;28;20021;-55
2022/01/24 06:15:23;;;;;;;56.03;27.35;;;-2.90;99.90;;;;;;5052685;28;20029;-54
2022/01/24 06:17:49;;;;;;;67.20;31.90;;;-3.00;99.90;;;;;;5051541;28;20077;-54
2022/01/24 06:20:15;;;;;;;78.57;34.92;;;-3.10;99.90;;;;;;5045656;28;20443;-54
2022/01/24 06:22:41;;;;;;;71.53;32.03;;;-3.20;99.90;;;;;;5050066;28;20048;-54
2022/01/24 06:25:08;;;;;;;144.77;53.40;;;-3.30;99.90;;;;;;5054775;28;20509;-54
2022/01/24 06:27:34;;;;;;;110.53;43.20;;;-3.30;99.90;;;;;;5049770;28;20029;-55
2022/01/24 06:30:01;;;;;;;103.88;42.50;;;-3.40;99.90;;;;;;5049010;28;20023;-54
2022/01/24 06:32:28;;;;;;;62.10;27.48;;;-3.40;99.90;;;;;;5043859;28;20076;-54
2022/01/24 06:35:00;;;;;;;60.80;26.15;;;-3.50;99.90;;;;;;5051501;28;20028;-54
2022/01/24 06:37:29;;;;;;;76.15;33.75;;;-3.60;99.90;;;;;;5050030;28;20043;-54
2022/01/24 06:39:58;;;;;;;78.15;32.38;;;-3.60;99.90;;;;;;5052728;28;20029;-54
2022/01/24 06:42:24;;;;;;;71.60;30.90;;;-3.60;99.90;;;;;;5055082;28;20116;-55
2022/01/24 06:44:53;;;;;;;64.68;29.00;;;-3.60;99.90;;;;;;5056580;28;20103;-54
2022/01/24 06:47:23;;;;;;;56.38;26.02;;;-3.60;99.90;;;;;;5054494;28;20025;-54
2022/01/24 06:49:55;;;;;;;58.42;26.73;;;-3.60;99.90;;;;;;5053796;28;20056;-55
2022/01/24 06:52:25;;;;;;;65.57;27.65;;;-3.60;99.90;;;;;;5053004;28;20053;-55
2022/01/24 06:54:51;;;;;;;92.90;40.05;;;-3.30;99.90;;;;;;5053271;28;20444;-55
2022/01/24 06:57:18;;;;;;;100.32;41.28;;;-2.30;99.90;;;;;;5045911;28;20036;-55
2022/01/24 06:59:46;;;;;;;110.00;45.97;;;-1.20;99.90;;;;;;5068001;28;20032;-55
2022/01/24 07:02:15;;;;;;;104.63;45.55;;;-0.10;99.90;;;;;;5031433;28;20119;-56
2022/01/24 07:04:44;;;;;;;98.03;42.85;;;1.10;99.90;;;;;;5046733;28;20078;-56
2022/01/24 07:07:14;;;;;;;92.70;43.60;;;2.10;99.90;;;;;;5031869;28;20089;-56
2022/01/24 07:09:42;;;;;;;90.10;42.25;;;2.50;99.90;;;;;;5050497;28;20109;-60
2022/01/24 07:12:09;;;;;;;78.85;39.40;;;2.90;99.90;;;;;;5051975;28;20094;-59
2022/01/24 07:14:37;;;;;;;59.33;29.63;;;3.50;99.90;;;;;;5020981;28;20025;-59
2022/01/24 07:17:13;;;;;;;66.05;32.83;;;4.70;96.10;;;;;;5053374;28;20061;-59
2022/01/24 07:19:45;;;;;;;69.38;33.97;;;4.60;95.90;;;;;;5057073;28;20029;-58
2022/01/24 07:22:17;;;;;;;68.82;34.65;;;5.80;94.20;;;;;;5054312;28;20029;-59
2022/01/24 07:24:43;;;;;;;75.15;35.15;;;6.00;89.80;;;;;;5049236;28;20033;-59
2022/01/24 07:27:09;;;;;;;76.63;34.40;;;6.20;91.60;;;;;;5054191;28;20021;-59
2022/01/24 07:29:35;;;;;;;65.88;33.40;;;7.00;86.30;;;;;;5053629;28;20034;-59
2022/01/24 07:32:02;;;;;;;52.92;25.38;;;6.50;90.40;;;;;;5037558;28;20043;-59
2022/01/24 07:34:31;;;;;;;53.42;27.00;;;7.10;85.30;;;;;;5055247;28;20035;-59
2022/01/24 07:36:57;;;;;;;53.38;27.27;;;6.00;80.30;;;;;;5053622;28;20028;-60
2022/01/24 07:39:23;;;;;;;50.65;27.15;;;4.80;93.70;;;;;;5054384;28;20105;-60
2022/01/24 07:41:51;;;;;;;46.38;24.77;;;5.70;92.30;;;;;;5053614;28;20029;-60
2022/01/24 07:44:24;;;;;;;38.45;19.85;;;6.50;89.50;;;;;;5050959;28;20029;-60
2022/01/24 07:46:50;;;;;;;33.78;18.13;;;7.40;68.30;;;;;;5054163;28;20056;-60
2022/01/24 07:49:17;;;;;;;33.20;17.25;;;7.50;66.20;;;;;;5054376;28;20111;-60
2022/01/24 07:51:46;;;;;;;29.15;15.95;;;7.00;65.20;;;;;;5036431;28;20033;-59
2022/01/24 07:54:12;;;;;;;32.33;17.67;;;6.90;75.00;;;;;;5053711;28;20066;-60
2022/01/24 07:56:38;;;;;;;42.88;20.77;;;7.30;72.40;;;;;;5051790;28;20060;-60
2022/01/24 07:59:05;;;;;;;31.30;16.55;;;8.10;59.00;;;;;;5054015;28;20048;-60
2022/01/24 08:01:34;;;;;;;34.83;17.00;;;8.10;57.40;;;;;;5053595;28;20017;-60
2022/01/24 08:04:04;;;;;;;23.00;11.73;;;9.20;53.50;;;;;;5052593;28;20036;-60
2022/01/24 08:06:31;;;;;;;19.45;9.60;;;8.90;47.30;;;;;;5054113;28;20493;-60
2022/01/24 08:08:57;;;;;;;20.50;11.55;;;8.80;44.60;;;;;;5051803;28;20029;-60
2022/01/24 08:11:24;;;;;;;31.90;12.52;;;7.40;45.90;;;;;;5053763;28;20060;-60
2022/01/24 08:13:51;;;;;;;40.33;13.25;;;7.60;49.90;;;;;;5054479;28;20037;-60
2022/01/24 08:16:18;;;;;;;25.83;12.90;;;7.50;54.30;;;;;;5054015;28;20036;-60
2022/01/24 08:18:55;;;;;;;38.22;14.75;;;8.00;49.40;;;;;;5054464;28;20055;-60
2022/01/24 08:21:24;;;;;;;41.78;11.38;;;7.60;52.70;;;;;;5037547;28;20354;-60
2022/01/24 08:23:51;;;;;;;25.95;11.40;;;7.50;47.90;;;;;;5054552;28;20417;-59
2022/01/24 08:26:17;;;;;;;46.88;11.82;;;7.30;52.80;;;;;;5055125;28;20059;-59
2022/01/24 08:28:43;;;;;;;52.95;13.93;;;6.60;50.50;;;;;;5055482;28;20484;-59
2022/01/24 08:31:10;;;;;;;44.75;12.77;;;5.70;59.60;;;;;;5054786;28;20056;-60
2022/01/24 08:33:36;;;;;;;48.35;15.10;;;5.70;59.10;;;;;;5054878;28;20029;-59
2022/01/24 08:36:03;;;;;;;29.63;11.50;;;5.80;65.50;;;;;;5055002;28;20025;-59
2022/01/24 08:38:33;;;;;;;30.17;10.75;;;6.50;53.50;;;;;;5054664;28;20032;-59
2022/01/24 08:41:06;;;;;;;30.08;14.05;;;6.40;53.30;;;;;;5055253;28;20032;-59
2022/01/24 08:43:57;;;;;;;71.45;17.13;;;6.80;51.20;;;;;;5055027;28;20082;-59
2022/01/24 08:46:24;;;;;;;32.22;13.70;;;6.80;54.20;;;;;;5054371;28;20028;-59
2022/01/24 08:48:50;;;;;;;38.47;13.30;;;6.70;52.00;;;;;;5054469;28;20021;-59
2022/01/24 08:51:17;;;;;;;47.70;13.15;;;6.80;53.20;;;;;;5054550;28;20029;-59
2022/01/24 08:53:46;;;;;;;43.20;16.25;;;7.20;52.20;;;;;;5054487;28;20429;-59
2022/01/24 08:56:12;;;;;;;29.67;12.13;;;7.30;49.30;;;;;;5053663;28;20024;-59
2022/01/24 08:58:38;;;;;;;30.33;11.65;;;7.20;49.80;;;;;;5053421;28;20113;-59
2022/01/24 09:08:40;;;;;;;32.72;13.95;;;8.40;46.90;;;;;;5037253;28;20418;-60
2022/01/24 09:35:27;;;;;;;39.78;15.60;;;6.80;46.80;;;;;;5050022;28;20454;-60
2022/01/24 10:19:17;;;;;;;43.90;15.20;;;7.40;42.90;;;;;;5050769;28;20379;-60
2022/01/24 10:21:51;;;;;;;20.30;9.80;;;7.50;43.60;;;;;;5051498;28;20025;-61
2022/01/24 10:24:26;;;;;;;38.70;13.32;;;7.50;41.70;;;;;;5051162;28;20449;-61
2022/01/24 10:27:23;;;;;;;30.65;12.98;;;7.30;42.00;;;;;;5051240;28;20116;-61
2022/01/24 10:29:55;;;;;;;39.83;14.65;;;7.40;43.50;;;;;;5052775;28;20021;-61
2022/01/24 10:32:30;;;;;;;88.43;18.52;;;7.10;44.70;;;;;;5052760;28;20033;-61
2022/01/24 10:35:16;;;;;;;23.73;12.02;;;7.00;45.80;;;;;;5050699;28;20025;-61
2022/01/24 10:37:42;;;;;;;42.03;14.00;;;6.40;47.20;;;;;;5037312;28;20066;-60
2022/01/24 10:40:09;;;;;;;34.33;14.35;;;6.40;48.20;;;;;;5053464;28;20503;-61
2022/01/24 10:42:59;;;;;;;35.35;14.23;;;6.20;47.80;;;;;;5053168;28;20104;-61
2022/01/24 10:45:27;;;;;;;31.45;13.35;;;5.70;49.20;;;;;;5052640;28;20053;-61
2022/01/24 10:47:56;;;;;;;45.22;14.48;;;6.40;47.50;;;;;;5056425;28;20535;-61
2022/01/24 10:50:24;;;;;;;22.45;12.73;;;7.30;46.70;;;;;;5056180;28;20089;-61
2022/01/24 10:52:55;;;;;;;31.63;14.27;;;8.00;43.00;;;;;;5046387;28;20052;-61
2022/01/24 10:55:27;;;;;;;37.63;15.95;;;7.90;43.10;;;;;;5037572;28;20024;-61
2022/01/24 10:58:06;;;;;;;31.67;14.10;;;7.80;42.20;;;;;;5053239;28;20032;-57
2022/01/24 11:00:33;;;;;;;25.95;12.13;;;7.90;42.20;;;;;;5056415;28;20033;-57
2022/01/24 11:03:01;;;;;;;39.25;16.92;;;8.10;41.90;;;;;;5056656;28;20035;-57
2022/01/24 11:05:36;;;;;;;26.10;14.27;;;8.10;39.50;;;;;;5056750;28;20032;-57
2022/01/24 11:08:03;;;;;;;23.73;13.88;;;8.50;39.60;;;;;;5054681;28;20112;-57
2022/01/24 11:10:32;;;;;;;36.67;14.57;;;9.10;38.70;;;;;;5054581;28;20039;-57
2022/01/24 11:12:59;;;;;;;27.00;12.52;;;8.40;38.00;;;;;;5055354;28;20557;-57
2022/01/24 11:15:26;;;;;;;31.15;13.55;;;9.70;38.30;;;;;;5055605;28;20098;-57
2022/01/24 11:17:53;;;;;;;32.47;13.95;;;10.20;36.00;;;;;;5056327;28;20067;-57
2022/01/24 11:20:21;;;;;;;26.63;12.25;;;11.10;36.70;;;;;;5053530;28;20028;-57
2022/01/24 11:22:59;;;;;;;46.35;14.10;;;11.20;34.70;;;;;;5054990;28;20035;-57
2022/01/24 11:25:40;;;;;;;26.40;13.87;;;10.40;33.70;;;;;;5039557;28;20029;-57
2022/01/24 11:28:08;;;;;;;31.65;15.73;;;9.40;35.30;;;;;;5063968;28;20282;-57
2022/01/24 11:31:02;;;;;;;58.38;24.02;;;7.90;36.10;;;;;;5056952;28;20040;-57
2022/01/24 11:33:34;;;;;;;57.08;25.38;;;8.10;38.90;;;;;;5056858;28;20025;-57
2022/01/24 11:36:07;;;;;;;42.30;17.23;;;7.10;39.20;;;;;;5056619;28;20037;-57
2022/01/24 11:38:44;;;;;;;48.08;19.20;;;6.70;40.40;;;;;;5057033;28;20064;-57
2022/01/24 11:41:21;;;;;;;41.15;16.40;;;6.70;41.50;;;;;;5055040;28;20128;-56
2022/01/24 11:43:51;;;;;;;60.22;22.90;;;6.90;41.70;;;;;;5052736;28;20089;-57
2022/01/24 11:46:47;;;;;;;74.25;21.50;;;6.70;42.30;;;;;;5051099;28;20039;-56
2022/01/24 11:49:16;;;;;;;39.30;18.00;;;6.50;43.00;;;;;;5055619;28;20040;-56
2022/01/24 11:51:49;;;;;;;49.47;18.92;;;5.80;43.70;;;;;;5052141;28;20036;-56
2022/01/24 11:54:43;;;;;;;33.42;16.40;;;5.80;46.00;;;;;;5047570;28;20039;-56
2022/01/24 11:57:25;;;;;;;50.95;17.48;;;6.90;45.50;;;;;;5048541;28;20039;-56
2022/01/24 12:00:06;;;;;;;34.10;16.38;;;7.70;42.80;;;;;;5055272;28;20025;-57
2022/01/24 12:02:39;;;;;;;;;;;7.90;40.70;;;;;;5055648;28;20021;-57
2022/01/24 12:05:11;;;;;;;32.72;13.15;;;7.60;39.40;;;;;;5050908;28;19912;-57
2022/01/24 12:07:45;;;;;;;19.95;10.50;;;8.00;39.50;;;;;;5051194;28;20028;-57
2022/01/24 12:10:23;;;;;;;31.00;15.13;;;8.70;38.50;;;;;;5048741;28;20017;-60
2022/01/24 12:12:59;;;;;;;25.90;10.98;;;9.40;36.30;;;;;;5046237;28;20101;-61
2022/01/24 12:15:40;;;;;;;29.42;11.77;;;9.40;34.80;;;;;;5049642;28;20057;-60
2022/01/24 12:18:09;;;;;;;37.75;11.75;;;8.20;34.90;;;;;;5042875;28;20025;-60
2022/01/24 12:20:35;;;;;;;26.05;10.65;;;7.80;37.00;;;;;;5049338;28;20036;-62
2022/01/24 12:23:19;;;;;;;23.45;11.80;;;7.80;37.00;;;;;;5045897;28;20021;-61
2022/01/24 12:26:02;;;;;;;19.48;10.20;;;7.80;38.00;;;;;;5052103;28;20348;-61
2022/01/24 12:28:43;;;;;;;19.67;9.10;;;8.20;36.00;;;;;;5041024;28;20047;-61
2022/01/24 12:31:10;;;;;;;40.92;12.98;;;8.00;35.70;;;;;;5052984;28;20032;-61
2022/01/24 12:33:51;;;;;;;51.75;18.13;;;7.90;36.30;;;;;;5054959;28;20425;-61
2022/01/24 12:36:37;;;;;;;23.50;11.15;;;7.60;36.20;;;;;;5051747;28;20053;-62
2022/01/24 12:39:25;;;;;;;16.42;8.43;;;7.00;36.20;;;;;;5055929;28;20475;-55
2022/01/24 12:42:01;;;;;;;20.77;9.68;;;6.70;35.50;;;;;;5049795;28;20083;-55
2022/01/24 12:47:04;;;;;;;26.27;10.73;;;6.10;38.00;;;;;;5053998;28;20116;-55
2022/01/24 12:49:32;;;;;;;42.22;11.98;;;5.80;38.50;;;;;;5048842;28;20455;-55
2022/01/24 12:52:03;;;;;;;49.63;18.92;;;5.20;39.80;;;;;;5051849;28;20033;-55
2022/01/24 12:54:31;;;;;;;24.50;11.40;;;5.60;41.50;;;;;;5048310;28;20030;-55
2022/01/24 12:57:08;;;;;;;22.83;9.40;;;6.40;40.30;;;;;;5043685;28;20044;-55
2022/01/24 12:59:36;;;;;;;18.63;9.57;;;7.10;38.20;;;;;;5052491;28;20479;-55
2022/01/24 13:02:05;;;;;;;15.80;8.60;;;7.90;36.00;;;;;;5038161;28;20025;-55
2022/01/24 13:04:39;;;;;;;32.45;13.18;;;8.70;34.00;;;;;;5048919;28;20410;-56
2022/01/24 13:07:07;;;;;;;43.83;11.10;;;9.40;34.40;;;;;;5053039;28;20079;-56
2022/01/24 13:09:35;;;;;;;36.08;12.98;;;8.80;32.60;;;;;;5047177;28;20052;-56
2022/01/24 13:12:07;;;;;;;33.58;14.18;;;9.30;33.00;;;;;;5047789;28;20021;-56
2022/01/24 13:14:49;;;;;;;28.35;11.45;;;9.50;32.80;;;;;;5033557;28;20044;-56
2022/01/24 13:20:46;;;;;;;32.28;13.50;;;9.00;32.80;;;;;;5056018;28;20063;-56
2022/01/24 13:23:11;;;;;;;33.72;13.52;;;8.90;32.50;;;;;;5051898;28;20053;-56
2022/01/24 13:25:39;;;;;;;47.55;20.00;;;8.90;33.00;;;;;;5042508;28;20040;-56
2022/01/24 13:28:07;;;;;;;44.60;18.08;;;9.30;34.30;;;;;;5049256;28;20394;-56
2022/01/24 13:30:50;;;;;;;21.55;10.82;;;8.80;33.20;;;;;;5049796;28;20032;-55
2022/01/24 13:33:22;;;;;;;43.03;18.27;;;8.00;32.90;;;;;;5043251;28;20028;-55
2022/01/24 13:35:51;;;;;;;52.97;22.63;;;7.60;34.40;;;;;;5043420;28;20080;-56
2022/01/24 13:38:19;;;;;;;22.88;12.15;;;7.50;35.70;;;;;;5045657;28;20025;-56
2022/01/24 13:40:54;;;;;;;30.63;16.35;;;8.00;36.10;;;;;;5039659;28;20044;-56
2022/01/24 13:43:58;;;;;;;25.35;10.98;;;8.30;35.60;;;;;;5049140;28;20021;-55
2022/01/24 13:46:30;;;;;;;37.90;19.85;;;8.20;35.10;;;;;;5048227;28;20116;-56
2022/01/24 13:49:05;;;;;;;29.50;14.85;;;8.60;34.80;;;;;;5047057;28;20100;-56
2022/01/24 13:51:43;;;;;;;21.52;11.57;;;8.60;34.40;;;;;;5052617;28;20040;-56
2022/01/24 13:54:12;;;;;;;15.00;8.30;;;8.80;32.90;;;;;;5046557;28;20030;-56
2022/01/24 13:56:55;;;;;;;20.40;12.18;;;8.80;31.60;;;;;;5051892;28;20033;-56
2022/01/24 13:59:27;;;;;;;15.07;9.20;;;8.60;31.90;;;;;;5049500;28;20029;-56
2022/01/24 14:02:12;;;;;;;18.83;9.88;;;8.90;32.30;;;;;;5044625;28;20021;-56
2022/01/24 14:04:53;;;;;;;20.42;9.68;;;8.80;31.40;;;;;;5045419;28;20041;-56
2022/01/24 14:07:24;;;;;;;15.20;9.30;;;8.20;31.30;;;;;;5045926;28;20025;-56
2022/01/24 14:09:58;;;;;;;12.93;8.32;;;8.50;32.70;;;;;;5054319;28;20029;-56
2022/01/24 14:12:30;;;;;;;14.52;7.90;;;8.40;32.50;;;;;;5054230;28;20043;-56
2022/01/24 14:15:16;;;;;;;15.32;8.68;;;8.40;32.70;;;;;;5033498;28;20535;-56
2022/01/24 14:18:30;;;;;;;13.88;8.00;;;8.40;32.80;;;;;;5001064;28;20507;-56
2022/01/24 14:20:51;;;;;;;18.38;10.43;;;8.40;34.40;;;;;;5033938;28;20422;-56
2022/01/24 14:23:35;;;;;;;22.60;10.05;;;8.40;35.10;;;;;;5047759;28;20477;-55
2022/01/24 14:26:23;;;;;;;54.63;25.08;;;8.50;34.10;;;;;;5057474;28;20021;-55
2022/01/24 14:29:06;;;;;;;15.30;10.50;;;7.90;34.60;;;;;;5053928;28;20116;-55
2022/01/24 14:31:33;;;;;;;19.90;10.38;;;7.70;33.70;;;;;;5057464;28;20353;-55
2022/01/24 14:34:00;;;;;;;26.67;11.25;;;7.10;34.10;;;;;;5057426;28;20025;-56
2022/01/24 14:36:27;;;;;;;13.35;9.07;;;6.80;35.10;;;;;;5056811;28;20053;-56
2022/01/24 14:39:01;;;;;;;17.98;8.38;;;6.60;35.50;;;;;;5057006;28;20029;-55
2022/01/24 14:41:29;;;;;;;13.88;8.05;;;6.90;36.30;;;;;;5057230;28;20025;-55
2022/01/24 14:46:42;;;;;;;15.27;8.23;;;6.60;36.50;;;;;;5057165;28;20082;-55
2022/01/24 14:49:09;;;;;;;18.95;9.07;;;6.30;36.80;;;;;;5056914;28;20029;-56
2022/01/24 14:51:39;;;;;;;15.85;8.70;;;6.00;37.80;;;;;;5057079;28;20033;-55
2022/01/24 14:54:08;;;;;;;41.55;19.00;;;5.50;38.60;;;;;;5057151;28;20056;-55
2022/01/24 14:56:36;;;;;;;17.95;9.82;;;5.30;39.10;;;;;;5056969;28;20037;-55
2022/01/24 14:59:03;;;;;;;12.88;8.93;;;5.50;38.70;;;;;;5057038;28;20439;-55
2022/01/24 15:01:30;;;;;;;14.85;9.00;;;5.10;39.00;;;;;;5056991;28;20100;-55
2022/01/24 15:03:57;;;;;;;24.85;13.95;;;4.90;39.00;;;;;;5056785;28;20352;-55
2022/01/24 15:06:24;;;;;;;44.30;23.45;;;5.00;39.40;;;;;;5056546;28;20036;-55
2022/01/24 15:08:53;;;;;;;86.40;36.88;;;5.40;39.50;;;;;;5056619;28;20467;-55
2022/01/24 15:11:23;;;;;;;67.78;32.35;;;5.50;39.60;;;;;;5056687;28;20021;-55
2022/01/24 15:13:56;;;;;;;33.60;18.20;;;5.00;40.20;;;;;;5056556;28;20494;-55
2022/01/24 15:25:19;;;;;;;21.55;10.88;;;3.80;46.40;;;;;;5076412;28;20040;-55
2022/01/24 15:27:26;;;;;;;17.73;9.80;;;3.60;47.50;;;;;;5076352;28;20032;-55
2022/01/24 15:29:52;;;;;;;17.17;8.88;;;3.20;50.10;;;;;;5076709;28;20021;-55
2022/01/24 15:32:18;;;;;;;17.45;9.13;;;2.70;50.00;;;;;;5066696;28;20036;-55
2022/01/24 15:34:44;;;;;;;21.40;10.82;;;2.60;52.20;;;;;;5056338;28;20085;-55
2022/01/24 15:37:10;;;;;;;20.75;10.30;;;2.20;56.00;;;;;;5039893;28;20551;-55
2022/01/24 15:39:37;;;;;;;19.55;9.48;;;1.70;65.10;;;;;;5036442;28;20117;-55